createdAt,value
2023-01-21T00:00:39.323Z,60.46
2023-01-21T00:03:05.733Z,60.22
2023-01-21T00:05:32.255Z,60.00
2023-01-21T00:08:09.470Z,59.74
2023-01-21T00:10:35.876Z,59.95
2023-01-21T00:15:42.654Z,60.15
2023-01-21T00:18:09.035Z,60.22
2023-01-21T00:20:35.470Z,60.30
2023-01-21T00:23:01.828Z,61.10
2023-01-21T00:25:30.614Z,61.29
2023-01-21T00:27:56.959Z,60.87
2023-01-21T00:30:23.312Z,60.83
2023-01-21T00:32:49.642Z,60.53
2023-01-21T00:35:15.975Z,60.12
2023-01-21T00:37:42.491Z,60.20
2023-01-21T00:40:08.811Z,60.87
2023-01-21T00:42:35.388Z,61.22
2023-01-21T00:45:01.728Z,61.26
2023-01-21T00:47:28.271Z,61.44
2023-01-21T00:49:54.722Z,61.23
2023-01-21T00:52:23.854Z,61.24
2023-01-21T00:54:50.207Z,62.07
2023-01-21T00:57:16.543Z,61.98
2023-01-21T00:59:43.023Z,62.46
2023-01-21T01:02:09.376Z,62.17
2023-01-21T01:07:17.097Z,61.80
2023-01-21T01:09:46.312Z,61.10
2023-01-21T01:12:12.856Z,60.97
2023-01-21T01:14:39.285Z,60.54
2023-01-21T01:17:05.711Z,60.41
2023-01-21T01:19:32.125Z,60.23
2023-01-21T01:21:58.495Z,60.18
2023-01-21T01:24:24.914Z,59.84
2023-01-21T01:26:51.349Z,59.89
2023-01-21T01:29:17.815Z,59.45
2023-01-21T01:31:44.460Z,58.40
2023-01-21T01:34:11.025Z,58.93
2023-01-21T01:36:37.421Z,59.16
2023-01-21T01:39:03.920Z,59.13
2023-01-21T01:41:32.785Z,59.57
2023-01-21T01:44:19.267Z,59.38
2023-01-21T01:46:45.841Z,59.36
2023-01-21T01:49:12.294Z,59.63
2023-01-21T01:51:38.762Z,59.59
2023-01-21T01:54:05.256Z,59.65
2023-01-21T01:56:31.659Z,58.98
2023-01-21T01:58:58.070Z,58.91
2023-01-21T02:01:24.493Z,59.13
2023-01-21T02:03:50.983Z,59.19
2023-01-21T02:06:17.352Z,59.00
2023-01-21T02:08:43.784Z,59.08
2023-01-21T02:11:10.556Z,59.16
2023-01-21T02:13:38.287Z,59.02
2023-01-21T02:16:04.758Z,59.33
2023-01-21T02:18:31.128Z,59.13
2023-01-21T02:20:57.535Z,59.11
2023-01-21T02:23:23.979Z,59.27
2023-01-21T02:25:50.384Z,60.14
2023-01-21T02:28:16.876Z,59.95
2023-01-21T02:30:45.004Z,59.86
2023-01-21T02:35:54.235Z,59.18
2023-01-21T02:38:25.133Z,57.28
2023-01-21T02:40:51.559Z,57.82
2023-01-21T02:43:18.042Z,57.87
2023-01-21T02:45:46.121Z,58.14
2023-01-21T02:48:12.588Z,58.72
2023-01-21T02:50:39.062Z,58.47
2023-01-21T02:53:06.498Z,58.86
2023-01-21T02:55:32.932Z,59.03
2023-01-21T02:58:02.420Z,58.85
2023-01-21T03:00:31.062Z,58.86
2023-01-21T03:03:00.105Z,59.66
2023-01-21T03:05:26.490Z,60.09
2023-01-21T03:07:52.903Z,59.70
2023-01-21T03:10:19.332Z,59.80
2023-01-21T03:12:45.789Z,59.94
2023-01-21T03:15:12.283Z,60.52
2023-01-21T03:17:38.789Z,61.17
2023-01-21T03:20:05.201Z,61.27
2023-01-21T03:22:31.661Z,61.08
2023-01-21T03:24:58.129Z,61.17
2023-01-21T03:27:24.652Z,61.00
2023-01-21T03:29:52.180Z,61.18
2023-01-21T03:32:18.630Z,60.65
2023-01-21T03:34:45.069Z,61.00
2023-01-21T03:37:13.735Z,60.88
2023-01-21T03:39:43.245Z,60.78
2023-01-21T03:42:09.781Z,60.52
2023-01-21T03:44:36.233Z,60.57
2023-01-21T03:47:02.690Z,59.46
2023-01-21T03:49:29.179Z,58.15
2023-01-21T03:51:55.665Z,57.52
2023-01-21T03:54:22.161Z,58.17
2023-01-21T03:56:48.671Z,58.50
2023-01-21T03:59:16.929Z,59.41
2023-01-21T04:01:44.435Z,59.21
2023-01-21T04:04:10.883Z,59.10
2023-01-21T04:06:37.328Z,59.35
2023-01-21T04:09:03.956Z,59.31
2023-01-21T04:11:30.502Z,59.54
2023-01-21T04:13:56.984Z,60.21
2023-01-21T04:16:26.701Z,60.39
2023-01-21T04:18:53.089Z,61.06
2023-01-21T04:21:19.538Z,61.06
2023-01-21T04:23:48.647Z,61.21
2023-01-21T04:26:15.127Z,60.94
2023-01-21T04:28:41.855Z,60.60
2023-01-21T04:33:51.392Z,60.04
2023-01-21T04:36:17.965Z,60.06
2023-01-21T04:38:45.615Z,60.19
2023-01-21T04:41:16.239Z,60.33
2023-01-21T04:43:42.637Z,60.59
2023-01-21T04:46:14.068Z,61.02
2023-01-21T04:51:28.733Z,61.24
2023-01-21T04:53:55.248Z,61.20
2023-01-21T04:56:22.013Z,61.16
2023-01-21T04:58:55.848Z,61.35
2023-01-21T05:01:24.073Z,60.80
2023-01-21T05:09:24.928Z,60.75
2023-01-21T05:11:51.471Z,60.42
2023-01-21T05:14:25.483Z,59.83
2023-01-21T05:16:52.128Z,59.76
2023-01-21T05:19:18.604Z,59.76
2023-01-21T05:21:45.089Z,60.12
2023-01-21T05:24:11.616Z,60.19
2023-01-21T05:26:38.124Z,60.26
2023-01-21T05:29:04.595Z,61.20
2023-01-21T05:31:31.136Z,60.88
2023-01-21T05:33:57.674Z,61.26
2023-01-21T05:36:24.165Z,60.94
2023-01-21T05:38:50.689Z,60.54
2023-01-21T05:41:17.167Z,60.47
2023-01-21T05:43:43.652Z,60.49
2023-01-21T05:46:10.199Z,60.63
2023-01-21T05:48:36.656Z,61.08
2023-01-21T05:51:03.192Z,61.39
2023-01-21T05:53:30.621Z,61.50
2023-01-21T05:55:57.115Z,61.60
2023-01-21T05:58:23.637Z,61.53
2023-01-21T06:00:50.177Z,61.52
2023-01-21T06:03:26.216Z,61.48
2023-01-21T06:08:45.603Z,61.55
2023-01-21T06:11:11.978Z,61.03
2023-01-21T06:13:38.329Z,60.79
2023-01-21T06:16:04.695Z,61.14
2023-01-21T06:18:31.125Z,60.65
2023-01-21T06:20:57.491Z,60.01
2023-01-21T06:23:23.984Z,59.57
2023-01-21T06:25:53.508Z,60.01
2023-01-21T06:28:21.068Z,60.31
2023-01-21T06:30:47.675Z,60.59
2023-01-21T06:33:18.943Z,60.65
2023-01-21T06:35:45.331Z,60.47
2023-01-21T06:38:11.796Z,60.73
2023-01-21T06:40:38.286Z,60.79
2023-01-21T06:43:04.791Z,61.43
2023-01-21T06:45:31.219Z,61.60
2023-01-21T06:47:58.202Z,61.74
2023-01-21T06:50:25.239Z,61.65
2023-01-21T06:53:04.716Z,61.63
2023-01-21T06:55:32.301Z,61.85
2023-01-21T06:57:58.781Z,61.37
2023-01-21T07:00:25.268Z,60.93
2023-01-21T07:02:51.768Z,60.83
2023-01-21T07:05:18.475Z,61.56
2023-01-21T07:07:45.056Z,61.75
2023-01-21T07:10:11.526Z,61.65
2023-01-21T07:12:37.961Z,61.47
2023-01-21T07:15:04.585Z,61.43
2023-01-21T07:17:30.959Z,61.32
2023-01-21T07:19:57.406Z,61.35
2023-01-21T07:23:47.198Z,61.42
2023-01-21T07:26:13.695Z,61.97
2023-01-21T07:28:40.073Z,61.75
2023-01-21T07:31:06.553Z,61.20
2023-01-21T07:33:32.982Z,61.03
2023-01-21T07:35:59.340Z,61.31
2023-01-21T07:38:25.785Z,61.61
2023-01-21T07:40:52.368Z,61.92
2023-01-21T07:43:18.773Z,61.45
2023-01-21T07:48:30.335Z,60.73
2023-01-21T07:50:56.763Z,61.20
2023-01-21T07:53:23.144Z,61.52
2023-01-21T07:55:49.621Z,61.80
2023-01-21T07:58:16.165Z,61.88
2023-01-21T08:00:51.318Z,62.37
2023-01-21T08:03:38.616Z,62.16
2023-01-21T08:06:06.348Z,61.69
2023-01-21T08:08:33.080Z,61.97
2023-01-21T08:10:59.596Z,61.90
2023-01-21T08:13:26.070Z,62.08
2023-01-21T08:15:52.560Z,62.04
2023-01-21T08:18:19.696Z,61.93
2023-01-21T08:20:55.439Z,62.11
2023-01-21T08:23:21.957Z,62.45
2023-01-21T08:25:49.305Z,62.45
2023-01-21T08:28:15.703Z,62.77
2023-01-21T08:30:42.178Z,62.37
2023-01-21T08:33:12.421Z,62.51
2023-01-21T08:35:38.843Z,62.63
2023-01-21T08:38:05.642Z,62.47
2023-01-21T08:40:32.066Z,62.09
2023-01-21T08:42:59.683Z,62.22
2023-01-21T08:45:26.150Z,61.44
2023-01-21T08:47:52.545Z,61.23
2023-01-21T08:50:19.071Z,61.19
2023-01-21T08:52:45.527Z,60.95
2023-01-21T08:55:11.947Z,61.37
2023-01-21T08:57:38.394Z,60.97
2023-01-21T09:00:04.818Z,61.16
2023-01-21T09:02:32.635Z,61.20
2023-01-21T09:05:04.976Z,61.29
2023-01-21T09:07:35.262Z,61.12
2023-01-21T09:10:07.219Z,60.32
2023-01-21T09:12:33.710Z,60.09
2023-01-21T09:15:04.708Z,60.65
2023-01-21T09:17:31.161Z,60.38
2023-01-21T09:19:57.610Z,60.94
2023-01-21T09:22:24.082Z,60.96
2023-01-21T09:24:50.601Z,60.89
2023-01-21T09:27:17.044Z,61.53
2023-01-21T09:29:43.571Z,61.39
2023-01-21T09:32:10.009Z,61.54
2023-01-21T09:34:36.451Z,61.12
2023-01-21T09:37:02.922Z,61.86
2023-01-21T09:39:29.353Z,62.89
2023-01-21T09:41:55.890Z,60.90
2023-01-21T09:44:22.426Z,60.70
2023-01-21T09:46:49.837Z,60.26
2023-01-21T09:49:18.219Z,60.18
2023-01-21T09:51:44.757Z,60.47
2023-01-21T09:54:12.142Z,60.54
2023-01-21T09:56:39.563Z,60.59
2023-01-21T09:59:06.257Z,60.51
2023-01-21T10:01:32.777Z,60.24
2023-01-21T10:03:59.227Z,60.35
2023-01-21T10:06:25.849Z,60.50
2023-01-21T10:09:07.059Z,60.13
2023-01-21T10:11:33.692Z,60.06
2023-01-21T10:14:03.178Z,59.11
2023-01-21T10:16:29.722Z,59.21
2023-01-21T10:18:56.334Z,58.36
2023-01-21T10:21:22.749Z,58.75
2023-01-21T10:23:49.232Z,58.09
2023-01-21T10:26:15.687Z,58.25
2023-01-21T10:28:42.534Z,58.73
2023-01-21T10:31:09.156Z,58.84
2023-01-21T10:33:35.701Z,58.86
2023-01-21T10:36:02.274Z,59.21
2023-01-21T10:38:28.800Z,59.09
2023-01-21T10:40:55.373Z,58.83
2023-01-21T10:48:59.406Z,57.92
2023-01-21T10:54:06.285Z,57.76
2023-01-21T10:56:32.817Z,56.95
2023-01-21T10:58:59.349Z,56.87
2023-01-21T11:01:26.891Z,56.60
2023-01-21T11:03:53.356Z,57.52
2023-01-21T11:06:19.840Z,56.93
2023-01-21T11:08:46.398Z,57.56
2023-01-21T11:11:12.872Z,57.45
2023-01-21T11:13:39.451Z,57.58
2023-01-21T11:16:05.915Z,56.29
2023-01-21T11:18:32.524Z,56.70
2023-01-21T11:20:59.022Z,56.82
2023-01-21T11:23:25.565Z,56.68
2023-01-21T11:25:53.520Z,55.96
2023-01-21T11:28:21.309Z,57.05
2023-01-21T11:30:55.944Z,56.95
2023-01-21T11:33:22.759Z,56.12
2023-01-21T11:35:49.340Z,56.40
2023-01-21T11:38:15.777Z,56.39
2023-01-21T11:40:42.364Z,56.63
2023-01-21T11:43:16.614Z,55.72
2023-01-21T11:45:43.120Z,55.33
2023-01-21T11:48:11.438Z,55.42
2023-01-21T11:50:45.805Z,55.61
2023-01-21T11:53:21.301Z,55.15
2023-01-21T11:58:30.630Z,54.59
2023-01-21T12:00:57.180Z,54.77
2023-01-21T12:03:23.652Z,54.10
2023-01-21T12:08:30.414Z,54.55
2023-01-21T12:10:59.175Z,54.67
2023-01-21T12:13:25.646Z,53.77
2023-01-21T12:15:52.176Z,54.52
2023-01-21T12:18:18.763Z,54.32
2023-01-21T12:20:45.252Z,52.88
2023-01-21T12:23:11.709Z,52.08
2023-01-21T12:25:38.216Z,51.64
2023-01-21T12:28:04.756Z,50.69
2023-01-21T12:30:31.356Z,51.01
2023-01-21T12:32:58.065Z,51.13
2023-01-21T12:35:24.618Z,51.00
2023-01-21T12:37:51.934Z,50.24
2023-01-21T12:40:18.867Z,49.53
2023-01-21T12:42:45.422Z,48.32
2023-01-21T12:45:11.808Z,49.09
2023-01-21T12:47:42.769Z,48.57
2023-01-21T12:50:12.202Z,46.60
2023-01-21T12:52:38.685Z,47.18
2023-01-21T12:55:05.141Z,46.76
2023-01-21T12:57:32.673Z,46.76
2023-01-21T12:59:59.168Z,47.83
2023-01-21T13:02:25.636Z,47.21
2023-01-21T13:04:52.141Z,47.25
2023-01-21T13:07:18.653Z,48.51
2023-01-21T13:09:45.169Z,48.78
2023-01-21T13:12:11.708Z,48.60
2023-01-21T13:14:38.257Z,47.76
2023-01-21T13:17:04.785Z,47.72
2023-01-21T13:19:31.340Z,47.14
2023-01-21T13:21:57.859Z,48.07
2023-01-21T13:24:24.461Z,48.45
2023-01-21T13:26:50.919Z,48.79
2023-01-21T13:29:17.436Z,49.52
2023-01-21T13:31:45.097Z,49.26
2023-01-21T13:34:11.797Z,48.57
2023-01-21T13:36:38.268Z,49.06
2023-01-21T13:39:04.840Z,48.61
2023-01-21T13:41:31.480Z,48.62
2023-01-21T13:44:14.266Z,49.08
2023-01-21T13:46:40.754Z,49.06
2023-01-21T13:49:08.079Z,49.21
2023-01-21T13:51:36.679Z,49.15
2023-01-21T13:54:05.252Z,49.47
2023-01-21T13:56:32.566Z,49.81
2023-01-21T13:58:59.064Z,50.20
2023-01-21T14:01:25.517Z,50.64
2023-01-21T14:03:55.051Z,49.65
2023-01-21T14:06:21.534Z,50.57
2023-01-21T14:08:48.023Z,50.82
2023-01-21T14:11:14.506Z,50.53
2023-01-21T14:13:40.918Z,50.20
2023-01-21T14:16:12.320Z,49.48
2023-01-21T14:18:39.816Z,49.49
2023-01-21T14:21:06.328Z,49.45
2023-01-21T14:23:35.254Z,49.23
2023-01-21T14:26:01.689Z,49.49
2023-01-21T14:28:29.324Z,49.36
2023-01-21T14:30:55.747Z,49.88
2023-01-21T14:33:24.924Z,50.48
2023-01-21T14:35:51.368Z,50.31
2023-01-21T14:38:17.783Z,50.01
2023-01-21T14:40:46.485Z,49.22
2023-01-21T14:43:12.969Z,49.25
2023-01-21T14:45:42.396Z,50.02
2023-01-21T14:48:09.210Z,50.60
2023-01-21T14:50:35.643Z,50.56
2023-01-21T14:53:04.205Z,50.72
2023-01-21T14:55:30.983Z,50.39
2023-01-21T14:57:58.550Z,50.37
2023-01-21T15:00:28.048Z,49.83
2023-01-21T15:03:14.412Z,49.55
2023-01-21T15:05:41.223Z,50.11
2023-01-21T15:08:07.674Z,50.72
2023-01-21T15:10:34.059Z,51.00
2023-01-21T15:13:00.462Z,51.13
2023-01-21T15:15:26.903Z,51.31
2023-01-21T15:17:53.390Z,51.98
2023-01-21T15:20:22.096Z,51.63
2023-01-21T15:22:48.575Z,51.22
2023-01-21T15:25:16.610Z,51.52
2023-01-21T15:27:43.521Z,51.87
2023-01-21T15:30:11.020Z,51.77
2023-01-21T15:32:37.409Z,52.19
2023-01-21T15:35:03.857Z,51.23
2023-01-21T15:37:33.306Z,51.63
2023-01-21T15:39:59.750Z,51.82
2023-01-21T15:42:26.185Z,52.22
2023-01-21T15:44:52.583Z,52.44
2023-01-21T15:47:21.924Z,52.86
2023-01-21T15:49:48.395Z,52.89
2023-01-21T15:54:58.910Z,51.94
2023-01-21T15:57:25.298Z,52.27
2023-01-21T16:00:05.272Z,52.79
2023-01-21T16:14:20.482Z,54.68
2023-01-21T16:16:21.287Z,55.36
2023-01-21T16:19:15.441Z,55.61
2023-01-21T16:21:45.839Z,55.73
2023-01-21T16:30:35.823Z,56.35
2023-01-21T16:32:35.333Z,57.29
2023-01-21T16:35:01.752Z,57.07
2023-01-21T16:37:28.263Z,57.58
2023-01-21T16:39:54.985Z,56.71
2023-01-21T16:42:21.406Z,54.11
2023-01-21T16:47:28.140Z,55.55
2023-01-21T16:49:58.741Z,54.72
2023-01-21T16:52:25.274Z,54.55
2023-01-21T16:54:52.031Z,55.73
2023-01-21T16:57:18.585Z,56.40
2023-01-21T16:59:45.226Z,52.81
2023-01-21T17:02:11.937Z,53.29
2023-01-21T17:04:45.740Z,54.10
2023-01-21T17:07:12.289Z,50.88
2023-01-21T17:09:42.077Z,53.33
2023-01-21T17:12:08.732Z,51.66
2023-01-21T17:14:40.106Z,52.67
2023-01-21T17:17:06.555Z,52.48
2023-01-21T17:19:32.971Z,52.22
2023-01-21T17:21:59.408Z,49.25
2023-01-21T17:24:28.625Z,50.24
2023-01-21T17:26:55.034Z,51.88
2023-01-21T17:29:21.505Z,51.51
2023-01-21T17:31:50.439Z,52.09
2023-01-21T17:36:57.432Z,51.36
2023-01-21T17:39:23.963Z,51.63
2023-01-21T17:41:50.464Z,52.83
2023-01-21T17:44:16.998Z,53.73
2023-01-21T17:46:44.821Z,53.17
2023-01-21T17:49:13.714Z,53.16
2023-01-21T17:51:41.373Z,54.84
2023-01-21T17:54:08.224Z,54.54
2023-01-21T17:56:38.042Z,54.42
2023-01-21T17:59:06.891Z,55.06
2023-01-21T18:01:33.382Z,55.09
2023-01-21T18:04:00.092Z,55.14
2023-01-21T18:06:28.790Z,55.67
2023-01-21T18:08:55.124Z,55.57
2023-01-21T18:11:21.630Z,55.33
2023-01-21T18:14:08.379Z,55.48
2023-01-21T18:16:34.797Z,55.94
2023-01-21T18:19:05.338Z,55.63
2023-01-21T18:21:50.695Z,54.96
2023-01-21T18:24:17.190Z,55.40
2023-01-21T18:26:43.707Z,54.48
2023-01-21T18:29:10.140Z,52.46
2023-01-21T18:31:36.711Z,51.26
2023-01-21T18:34:03.713Z,51.08
2023-01-21T18:36:32.314Z,48.33
2023-01-21T18:41:40.291Z,50.45
2023-01-21T18:44:09.589Z,52.09
2023-01-21T18:46:36.122Z,53.96
2023-01-21T18:49:02.623Z,53.85
2023-01-21T18:51:29.183Z,53.29
2023-01-21T18:53:55.858Z,53.87
2023-01-21T18:56:31.764Z,54.41
2023-01-21T18:59:01.261Z,55.06
2023-01-21T19:01:27.783Z,55.80
2023-01-21T19:06:36.196Z,55.61
2023-01-21T19:09:05.488Z,56.06
2023-01-21T19:11:32.018Z,55.24
2023-01-21T19:14:01.170Z,54.84
2023-01-21T19:16:27.797Z,54.31
2023-01-21T19:18:54.233Z,55.36
2023-01-21T19:21:24.314Z,54.79
2023-01-21T19:23:50.710Z,54.64
2023-01-21T19:26:17.167Z,55.53
2023-01-21T19:28:51.690Z,54.86
2023-01-21T19:31:21.299Z,54.45
2023-01-21T19:33:47.815Z,54.45
2023-01-21T19:36:22.225Z,55.02
2023-01-21T19:38:53.054Z,55.37
2023-01-21T19:41:19.701Z,56.15
2023-01-21T19:43:46.212Z,57.20
2023-01-21T19:46:12.765Z,56.89
2023-01-21T19:48:39.316Z,56.94
2023-01-21T19:51:06.036Z,55.85
2023-01-21T19:53:32.624Z,56.29
2023-01-21T19:55:59.156Z,55.69
2023-01-21T19:58:25.714Z,55.63
2023-01-21T20:00:52.321Z,54.83
2023-01-21T20:03:30.284Z,55.31
2023-01-21T20:08:45.724Z,55.54
2023-01-21T20:11:12.237Z,55.14
2023-01-21T20:13:41.475Z,54.69
2023-01-21T20:18:48.247Z,54.65
2023-01-21T20:21:14.681Z,54.87
2023-01-21T20:23:41.397Z,55.40
2023-01-21T20:26:07.907Z,56.42
2023-01-21T20:28:34.516Z,55.04
2023-01-21T20:31:02.281Z,54.86
2023-01-21T20:33:28.786Z,54.88
2023-01-21T20:35:55.201Z,54.83
2023-01-21T20:38:22.759Z,55.48
2023-01-21T20:40:49.588Z,56.02
2023-01-21T20:44:08.893Z,56.27
2023-01-21T20:49:05.302Z,57.91
2023-01-21T20:51:31.964Z,57.43
2023-01-21T20:53:58.543Z,57.49
2023-01-21T20:56:33.967Z,57.37
2023-01-21T20:59:00.572Z,57.49
2023-01-21T21:01:27.122Z,57.19
2023-01-21T21:03:53.605Z,57.00
2023-01-21T21:06:23.265Z,57.16
2023-01-21T21:08:49.711Z,56.48
2023-01-21T21:11:16.239Z,56.54
2023-01-21T21:13:42.780Z,57.04
2023-01-21T21:16:09.353Z,56.74
2023-01-21T21:18:38.412Z,56.73
2023-01-21T21:21:06.931Z,57.26
2023-01-21T21:23:33.537Z,56.85
2023-01-21T21:26:00.144Z,56.62
2023-01-21T21:28:29.579Z,56.88
2023-01-21T21:30:56.094Z,56.51
2023-01-21T21:39:09.357Z,58.05
2023-01-21T21:41:41.378Z,57.79
2023-01-21T21:44:07.860Z,57.69
2023-01-21T21:46:34.338Z,57.51
2023-01-21T21:49:00.740Z,57.54
2023-01-21T21:51:28.356Z,57.35
2023-01-21T21:53:55.646Z,57.28
2023-01-21T21:56:22.254Z,57.90
2023-01-21T21:58:50.893Z,57.84
2023-01-21T22:01:30.513Z,58.08
2023-01-21T22:09:29.179Z,57.80
2023-01-21T22:11:55.633Z,57.89
2023-01-21T22:14:22.452Z,57.76
2023-01-21T22:16:49.071Z,57.83
2023-01-21T22:19:15.729Z,57.87
2023-01-21T22:21:42.246Z,57.90
2023-01-21T22:24:11.868Z,58.18
2023-01-21T22:26:38.466Z,57.84
2023-01-21T22:29:04.992Z,58.20
2023-01-21T22:31:31.679Z,59.81
2023-01-21T22:34:00.969Z,59.28
2023-01-21T22:36:27.724Z,58.98
2023-01-21T22:38:54.234Z,58.84
2023-01-21T22:44:04.776Z,59.03
2023-01-21T22:46:31.432Z,59.59
2023-01-21T22:48:57.931Z,59.06
2023-01-21T22:51:24.531Z,59.52
2023-01-21T22:53:58.503Z,59.69
2023-01-21T22:56:44.949Z,60.70
2023-01-21T22:59:19.021Z,61.29
2023-01-21T23:01:46.959Z,60.80
2023-01-21T23:04:17.014Z,61.92
2023-01-21T23:06:46.349Z,61.75
2023-01-21T23:09:12.885Z,60.94
2023-01-21T23:11:41.868Z,60.51
2023-01-21T23:17:00.602Z,59.08
2023-01-21T23:19:35.860Z,58.45
2023-01-21T23:22:02.382Z,58.89
2023-01-21T23:24:29.912Z,58.59
2023-01-21T23:27:00.084Z,58.54
2023-01-21T23:29:29.708Z,58.16
2023-01-21T23:39:54.522Z,59.45
2023-01-21T23:56:00.317Z,61.06
2023-01-21T23:58:26.829Z,60.73
